sensor_id;sensor_type;location;lat;lon;timestamp;pressure;altitude;pressure_sealevel;temperature;humidity
26112;BME280;13829;48.990;8.346;2023-03-11T00:00:12;99540.56;;;4.53;81.36
26112;BME280;13829;48.990;8.346;2023-03-11T00:02:42;99551.06;;;4.58;80.79
26112;BME280;13829;48.990;8.346;2023-03-11T00:05:16;99553.66;;;4.56;82.32
26112;BME280;13829;48.990;8.346;2023-03-11T00:07:43;99559.59;;;4.49;81.79
26112;BME280;13829;48.990;8.346;2023-03-11T00:10:14;99574.28;;;4.46;82.06
26112;BME280;13829;48.990;8.346;2023-03-11T00:12:42;99592.00;;;4.68;81.63
26112;BME280;13829;48.990;8.346;2023-03-11T00:15:10;99588.47;;;4.65;81.17
26112;BME280;13829;48.990;8.346;2023-03-11T00:17:37;99594.78;;;4.78;81.89
26112;BME280;13829;48.990;8.346;2023-03-11T00:20:07;99593.13;;;4.84;81.26
26112;BME280;13829;48.990;8.346;2023-03-11T00:22:36;99585.19;;;4.75;81.47
26112;BME280;13829;48.990;8.346;2023-03-11T00:25:03;99581.69;;;4.74;81.34
26112;BME280;13829;48.990;8.346;2023-03-11T00:27:30;99592.78;;;4.61;82.34
26112;BME280;13829;48.990;8.346;2023-03-11T00:29:57;99594.47;;;4.59;82.46
26112;BME280;13829;48.990;8.346;2023-03-11T00:32:24;99604.94;;;4.62;82.39
26112;BME280;13829;48.990;8.346;2023-03-11T00:34:51;99602.16;;;4.51;82.76
26112;BME280;13829;48.990;8.346;2023-03-11T00:37:18;99599.53;;;4.50;82.30
26112;BME280;13829;48.990;8.346;2023-03-11T00:39:46;99589.03;;;4.45;81.82
26112;BME280;13829;48.990;8.346;2023-03-11T00:42:13;99589.81;;;4.39;82.74
26112;BME280;13829;48.990;8.346;2023-03-11T00:44:40;99589.03;;;4.45;82.01
26112;BME280;13829;48.990;8.346;2023-03-11T00:47:08;99612.50;;;4.47;80.65
26112;BME280;13829;48.990;8.346;2023-03-11T00:49:36;99615.66;;;4.27;80.37
26112;BME280;13829;48.990;8.346;2023-03-11T00:52:04;99619.78;;;4.16;79.80
26112;BME280;13829;48.990;8.346;2023-03-11T00:54:31;99629.53;;;4.28;80.59
26112;BME280;13829;48.990;8.346;2023-03-11T00:56:59;99625.38;;;4.39;81.05
26112;BME280;13829;48.990;8.346;2023-03-11T00:59:26;99623.59;;;4.36;78.19
26112;BME280;13829;48.990;8.346;2023-03-11T01:01:53;99627.84;;;4.30;77.68
26112;BME280;13829;48.990;8.346;2023-03-11T01:04:20;99620.09;;;4.34;77.82
26112;BME280;13829;48.990;8.346;2023-03-11T01:06:47;99628.78;;;4.33;76.43
26112;BME280;13829;48.990;8.346;2023-03-11T01:09:14;99619.31;;;4.38;76.74
26112;BME280;13829;48.990;8.346;2023-03-11T01:11:41;99629.44;;;4.23;76.11
26112;BME280;13829;48.990;8.346;2023-03-11T01:14:09;99640.53;;;4.13;74.85
26112;BME280;13829;48.990;8.346;2023-03-11T01:16:36;99638.56;;;3.99;74.74
26112;BME280;13829;48.990;8.346;2023-03-11T01:19:03;99643.75;;;3.99;74.77
26112;BME280;13829;48.990;8.346;2023-03-11T01:21:30;99669.81;;;4.02;74.88
26112;BME280;13829;48.990;8.346;2023-03-11T01:23:57;99657.50;;;3.92;73.85
26112;BME280;13829;48.990;8.346;2023-03-11T01:26:24;99661.88;;;3.95;73.93
26112;BME280;13829;48.990;8.346;2023-03-11T01:28:51;99645.16;;;3.82;73.57
26112;BME280;13829;48.990;8.346;2023-03-11T01:31:19;99632.28;;;3.88;72.97
26112;BME280;13829;48.990;8.346;2023-03-11T01:33:46;99640.00;;;3.85;72.56
26112;BME280;13829;48.990;8.346;2023-03-11T01:36:13;99635.47;;;3.76;73.38
26112;BME280;13829;48.990;8.346;2023-03-11T01:38:40;99645.72;;;3.68;71.86
26112;BME280;13829;48.990;8.346;2023-03-11T01:41:07;99628.22;;;3.59;70.49
26112;BME280;13829;48.990;8.346;2023-03-11T01:43:47;99643.66;;;3.52;71.42
26112;BME280;13829;48.990;8.346;2023-03-11T01:46:19;99646.41;;;3.59;71.88
26112;BME280;13829;48.990;8.346;2023-03-11T01:48:48;99645.03;;;3.75;70.77
26112;BME280;13829;48.990;8.346;2023-03-11T01:51:23;99648.16;;;3.59;71.34
26112;BME280;13829;48.990;8.346;2023-03-11T01:53:52;99652.72;;;3.71;71.55
26112;BME280;13829;48.990;8.346;2023-03-11T01:56:21;99663.88;;;3.65;71.56
26112;BME280;13829;48.990;8.346;2023-03-11T01:58:51;99654.31;;;3.64;70.75
26112;BME280;13829;48.990;8.346;2023-03-11T02:01:21;99661.13;;;3.57;72.18
26112;BME280;13829;48.990;8.346;2023-03-11T02:03:49;99668.69;;;3.47;72.42
26112;BME280;13829;48.990;8.346;2023-03-11T02:06:21;99677.47;;;3.53;72.63
26112;BME280;13829;48.990;8.346;2023-03-11T02:08:50;99666.34;;;3.59;71.85
26112;BME280;13829;48.990;8.346;2023-03-11T02:11:21;99663.63;;;3.53;71.33
26112;BME280;13829;48.990;8.346;2023-03-11T02:13:50;99646.25;;;3.52;70.67
26112;BME280;13829;48.990;8.346;2023-03-11T02:16:19;99641.91;;;3.51;71.61
26112;BME280;13829;48.990;8.346;2023-03-11T02:18:46;99647.88;;;3.47;72.70
26112;BME280;13829;48.990;8.346;2023-03-11T02:21:22;99647.84;;;3.43;71.51
26112;BME280;13829;48.990;8.346;2023-03-11T02:23:59;99649.84;;;3.57;71.86
26112;BME280;13829;48.990;8.346;2023-03-11T02:26:37;99635.69;;;3.42;71.70
26112;BME280;13829;48.990;8.346;2023-03-11T02:29:09;99628.97;;;3.54;72.20
26112;BME280;13829;48.990;8.346;2023-03-11T02:31:38;99625.81;;;3.69;70.00
26112;BME280;13829;48.990;8.346;2023-03-11T02:34:12;99648.06;;;3.56;71.22
26112;BME280;13829;48.990;8.346;2023-03-11T02:36:42;99648.84;;;3.50;70.61
26112;BME280;13829;48.990;8.346;2023-03-11T02:39:09;99650.28;;;3.37;71.70
26112;BME280;13829;48.990;8.346;2023-03-11T02:41:39;99639.75;;;3.31;72.11
26112;BME280;13829;48.990;8.346;2023-03-11T02:44:13;99643.09;;;3.25;73.33
26112;BME280;13829;48.990;8.346;2023-03-11T02:46:42;99646.78;;;3.35;73.47
26112;BME280;13829;48.990;8.346;2023-03-11T02:49:10;99656.75;;;3.55;73.40
26112;BME280;13829;48.990;8.346;2023-03-11T02:51:37;99653.44;;;3.22;74.73
26112;BME280;13829;48.990;8.346;2023-03-11T02:54:05;99657.63;;;3.16;75.39
26112;BME280;13829;48.990;8.346;2023-03-11T02:56:32;99664.28;;;3.04;75.64
26112;BME280;13829;48.990;8.346;2023-03-11T02:58:59;99664.44;;;3.10;76.45
26112;BME280;13829;48.990;8.346;2023-03-11T03:01:27;99671.91;;;2.97;77.37
26112;BME280;13829;48.990;8.346;2023-03-11T03:03:54;99673.06;;;3.09;78.10
26112;BME280;13829;48.990;8.346;2023-03-11T03:06:21;99665.28;;;3.11;77.37
26112;BME280;13829;48.990;8.346;2023-03-11T03:08:49;99676.31;;;3.01;77.52
26112;BME280;13829;48.990;8.346;2023-03-11T03:11:16;99656.84;;;3.20;79.12
26112;BME280;13829;48.990;8.346;2023-03-11T03:13:43;99647.78;;;3.04;78.38
26112;BME280;13829;48.990;8.346;2023-03-11T03:16:10;99650.78;;;2.83;78.34
26112;BME280;13829;48.990;8.346;2023-03-11T03:18:39;99647.75;;;3.01;79.59
26112;BME280;13829;48.990;8.346;2023-03-11T03:21:06;99648.28;;;2.87;80.61
26112;BME280;13829;48.990;8.346;2023-03-11T03:23:33;99641.69;;;3.00;81.12
26112;BME280;13829;48.990;8.346;2023-03-11T03:26:03;99659.81;;;2.99;80.72
26112;BME280;13829;48.990;8.346;2023-03-11T03:28:30;99659.59;;;2.89;80.57
26112;BME280;13829;48.990;8.346;2023-03-11T03:31:03;99665.84;;;2.98;80.41
26112;BME280;13829;48.990;8.346;2023-03-11T03:33:31;99675.34;;;2.97;80.75
26112;BME280;13829;48.990;8.346;2023-03-11T03:35:59;99685.53;;;2.88;80.09
26112;BME280;13829;48.990;8.346;2023-03-11T03:38:26;99702.66;;;2.81;80.08
26112;BME280;13829;48.990;8.346;2023-03-11T03:40:53;99703.44;;;2.77;80.74
26112;BME280;13829;48.990;8.346;2023-03-11T03:43:20;99705.06;;;2.73;79.68
26112;BME280;13829;48.990;8.346;2023-03-11T03:45:55;99702.91;;;2.57;81.08
26112;BME280;13829;48.990;8.346;2023-03-11T03:48:22;99713.25;;;2.54;81.88
26112;BME280;13829;48.990;8.346;2023-03-11T03:50:49;99721.84;;;2.53;81.82
26112;BME280;13829;48.990;8.346;2023-03-11T03:53:17;99716.72;;;2.56;82.93
26112;BME280;13829;48.990;8.346;2023-03-11T03:55:45;99713.88;;;2.45;82.78
26112;BME280;13829;48.990;8.346;2023-03-11T03:58:12;99718.09;;;2.41;83.56
26112;BME280;13829;48.990;8.346;2023-03-11T04:00:39;99716.94;;;2.30;83.69
26112;BME280;13829;48.990;8.346;2023-03-11T04:03:06;99711.56;;;2.24;84.12
26112;BME280;13829;48.990;8.346;2023-03-11T04:05:33;99715.50;;;2.09;84.72
26112;BME280;13829;48.990;8.346;2023-03-11T04:08:01;99712.97;;;2.12;85.09
26112;BME280;13829;48.990;8.346;2023-03-11T04:10:29;99711.13;;;2.07;85.91
26112;BME280;13829;48.990;8.346;2023-03-11T04:12:56;99711.72;;;1.98;86.02
26112;BME280;13829;48.990;8.346;2023-03-11T04:15:23;99706.44;;;1.95;86.45
26112;BME280;13829;48.990;8.346;2023-03-11T04:17:50;99715.47;;;1.77;87.30
26112;BME280;13829;48.990;8.346;2023-03-11T04:20:17;99717.88;;;1.71;88.24
26112;BME280;13829;48.990;8.346;2023-03-11T04:22:44;99715.59;;;1.82;88.52
26112;BME280;13829;48.990;8.346;2023-03-11T04:25:11;99708.34;;;1.70;89.36
26112;BME280;13829;48.990;8.346;2023-03-11T04:27:39;99700.63;;;1.73;89.39
26112;BME280;13829;48.990;8.346;2023-03-11T04:30:12;99704.81;;;1.68;88.97
26112;BME280;13829;48.990;8.346;2023-03-11T04:32:39;99709.16;;;1.69;89.28
26112;BME280;13829;48.990;8.346;2023-03-11T04:35:07;99710.75;;;1.64;89.54
26112;BME280;13829;48.990;8.346;2023-03-11T04:37:34;99703.91;;;1.66;89.66
26112;BME280;13829;48.990;8.346;2023-03-11T04:40:01;99711.53;;;1.61;90.37
26112;BME280;13829;48.990;8.346;2023-03-11T04:42:30;99711.53;;;1.61;90.16
26112;BME280;13829;48.990;8.346;2023-03-11T04:44:59;99720.31;;;1.67;89.65
26112;BME280;13829;48.990;8.346;2023-03-11T04:47:26;99707.31;;;1.65;90.76
26112;BME280;13829;48.990;8.346;2023-03-11T04:49:53;99710.94;;;1.70;90.70
26112;BME280;13829;48.990;8.346;2023-03-11T04:52:21;99715.47;;;1.77;90.29
26112;BME280;13829;48.990;8.346;2023-03-11T04:54:48;99721.34;;;2.02;88.29
26112;BME280;13829;48.990;8.346;2023-03-11T04:57:15;99720.25;;;1.94;88.28
26112;BME280;13829;48.990;8.346;2023-03-11T04:59:42;99722.63;;;1.86;89.00
26112;BME280;13829;48.990;8.346;2023-03-11T05:02:10;99729.94;;;2.01;87.84
26112;BME280;13829;48.990;8.346;2023-03-11T05:04:37;99740.72;;;1.85;88.23
26112;BME280;13829;48.990;8.346;2023-03-11T05:07:04;99737.25;;;1.84;89.08
26112;BME280;13829;48.990;8.346;2023-03-11T05:09:31;99741.22;;;1.71;88.77
26112;BME280;13829;48.990;8.346;2023-03-11T05:11:58;99738.88;;;1.81;89.02
26112;BME280;13829;48.990;8.346;2023-03-11T05:14:25;99734.84;;;1.90;88.72
26112;BME280;13829;48.990;8.346;2023-03-11T05:16:51;99732.25;;;1.90;88.31
26112;BME280;13829;48.990;8.346;2023-03-11T05:19:20;99739.88;;;1.86;88.06
26112;BME280;13829;48.990;8.346;2023-03-11T05:22:00;99745.03;;;1.84;88.35
26112;BME280;13829;48.990;8.346;2023-03-11T05:24:28;99743.09;;;1.77;87.77
26112;BME280;13829;48.990;8.346;2023-03-11T05:26:56;99749.69;;;1.67;88.46
26112;BME280;13829;48.990;8.346;2023-03-11T05:29:24;99749.53;;;1.61;88.99
26112;BME280;13829;48.990;8.346;2023-03-11T05:31:51;99748.06;;;1.42;89.37
26112;BME280;13829;48.990;8.346;2023-03-11T05:34:20;99752.56;;;1.48;90.03
26112;BME280;13829;48.990;8.346;2023-03-11T05:36:48;99752.50;;;1.44;90.16
26112;BME280;13829;48.990;8.346;2023-03-11T05:39:15;99760.06;;;1.38;90.51
26112;BME280;13829;48.990;8.346;2023-03-11T05:41:41;99766.91;;;1.36;90.49
26112;BME280;13829;48.990;8.346;2023-03-11T05:44:08;99765.97;;;1.34;90.90
26112;BME280;13829;48.990;8.346;2023-03-11T05:46:35;99765.34;;;1.41;91.01
26112;BME280;13829;48.990;8.346;2023-03-11T05:49:02;99766.91;;;1.36;91.63
26112;BME280;13829;48.990;8.346;2023-03-11T05:51:31;99765.28;;;1.40;91.32
26112;BME280;13829;48.990;8.346;2023-03-11T05:53:57;99762.47;;;1.32;90.85
26112;BME280;13829;48.990;8.346;2023-03-11T05:56:24;99767.66;;;1.32;91.79
26112;BME280;13829;48.990;8.346;2023-03-11T05:58:51;99770.31;;;1.35;92.26
26112;BME280;13829;48.990;8.346;2023-03-11T06:01:18;99758.50;;;1.43;91.50
26112;BME280;13829;48.990;8.346;2023-03-11T06:03:46;99764.97;;;1.58;90.79
26112;BME280;13829;48.990;8.346;2023-03-11T06:06:13;99763.41;;;1.63;89.83
26112;BME280;13829;48.990;8.346;2023-03-11T06:08:41;99756.28;;;1.56;89.26
26112;BME280;13829;48.990;8.346;2023-03-11T06:11:14;99758.69;;;1.50;90.56
26112;BME280;13829;48.990;8.346;2023-03-11T06:13:42;99760.34;;;1.48;91.27
26112;BME280;13829;48.990;8.346;2023-03-11T06:16:08;99758.69;;;1.50;91.84
26112;BME280;13829;48.990;8.346;2023-03-11T06:18:35;99763.22;;;1.57;91.62
26112;BME280;13829;48.990;8.346;2023-03-11T06:21:03;99772.13;;;1.65;91.66
26112;BME280;13829;48.990;8.346;2023-03-11T06:23:30;99764.72;;;1.77;91.43
26112;BME280;13829;48.990;8.346;2023-03-11T06:26:01;99782.31;;;1.88;90.84
26112;BME280;13829;48.990;8.346;2023-03-11T06:28:30;99791.38;;;2.02;90.18
26112;BME280;13829;48.990;8.346;2023-03-11T06:31:06;99793.31;;;2.09;89.87
26112;BME280;13829;48.990;8.346;2023-03-11T06:33:33;99797.06;;;2.19;89.80
26112;BME280;13829;48.990;8.346;2023-03-11T06:36:02;99802.66;;;2.33;88.86
26112;BME280;13829;48.990;8.346;2023-03-11T06:38:30;99801.75;;;2.33;88.47
26112;BME280;13829;48.990;8.346;2023-03-11T06:41:00;99806.44;;;2.44;88.32
26112;BME280;13829;48.990;8.346;2023-03-11T06:43:29;99801.13;;;2.41;89.19
26112;BME280;13829;48.990;8.346;2023-03-11T06:45:57;99806.66;;;2.52;87.92
26112;BME280;13829;48.990;8.346;2023-03-11T06:48:24;99810.56;;;2.70;87.60
26112;BME280;13829;48.990;8.346;2023-03-11T06:50:54;99817.66;;;2.75;87.21
26112;BME280;13829;48.990;8.346;2023-03-11T06:53:22;99818.38;;;3.03;87.52
26112;BME280;13829;48.990;8.346;2023-03-11T06:56:02;99820.06;;;3.71;86.95
26112;BME280;13829;48.990;8.346;2023-03-11T06:58:32;99809.16;;;5.21;82.44
26112;BME280;13829;48.990;8.346;2023-03-11T07:01:00;99808.84;;;6.87;72.26
26112;BME280;13829;48.990;8.346;2023-03-11T07:03:28;99798.66;;;8.56;61.31
26112;BME280;13829;48.990;8.346;2023-03-11T07:05:55;99809.31;;;9.55;56.52
26112;BME280;13829;48.990;8.346;2023-03-11T07:08:22;99797.78;;;10.24;51.79
26112;BME280;13829;48.990;8.346;2023-03-11T07:11:02;99808.06;;;10.89;49.61
26112;BME280;13829;48.990;8.346;2023-03-11T07:13:29;99815.66;;;11.33;46.60
26112;BME280;13829;48.990;8.346;2023-03-11T07:16:02;99820.63;;;11.70;45.21
26112;BME280;13829;48.990;8.346;2023-03-11T07:18:29;99818.72;;;11.84;45.53
26112;BME280;13829;48.990;8.346;2023-03-11T07:20:56;99821.16;;;12.79;44.52
26112;BME280;13829;48.990;8.346;2023-03-11T07:23:23;99818.53;;;12.81;42.38
26112;BME280;13829;48.990;8.346;2023-03-11T07:25:50;99821.28;;;13.32;42.39
26112;BME280;13829;48.990;8.346;2023-03-11T07:28:21;99821.19;;;13.92;40.37
26112;BME280;13829;48.990;8.346;2023-03-11T07:30:49;99833.00;;;14.21;39.68
26112;BME280;13829;48.990;8.346;2023-03-11T07:33:17;99831.19;;;14.68;40.86
26112;BME280;13829;48.990;8.346;2023-03-11T07:35:45;99841.81;;;15.07;38.54
26112;BME280;13829;48.990;8.346;2023-03-11T07:38:14;99835.13;;;15.31;39.02
26112;BME280;13829;48.990;8.346;2023-03-11T07:40:42;99833.69;;;15.90;37.17
26112;BME280;13829;48.990;8.346;2023-03-11T07:43:10;99831.94;;;15.89;35.81
26112;BME280;13829;48.990;8.346;2023-03-11T07:45:38;99833.66;;;15.56;36.50
26112;BME280;13829;48.990;8.346;2023-03-11T07:48:05;99845.31;;;15.09;37.21
26112;BME280;13829;48.990;8.346;2023-03-11T07:50:32;99850.22;;;15.28;36.93
26112;BME280;13829;48.990;8.346;2023-03-11T07:52:59;99856.94;;;15.41;35.43
26112;BME280;13829;48.990;8.346;2023-03-11T07:55:26;99858.47;;;15.52;35.52
26112;BME280;13829;48.990;8.346;2023-03-11T07:57:53;99866.16;;;15.62;34.55
26112;BME280;13829;48.990;8.346;2023-03-11T08:00:21;99874.88;;;14.45;36.61
26112;BME280;13829;48.990;8.346;2023-03-11T08:02:49;99877.06;;;14.22;37.04
26112;BME280;13829;48.990;8.346;2023-03-11T08:05:16;99877.38;;;14.51;37.65
26112;BME280;13829;48.990;8.346;2023-03-11T08:07:45;99868.28;;;14.19;37.26
26112;BME280;13829;48.990;8.346;2023-03-11T08:10:12;99880.94;;;13.50;37.95
26112;BME280;13829;48.990;8.346;2023-03-11T08:12:39;99889.41;;;13.10;40.21
26112;BME280;13829;48.990;8.346;2023-03-11T08:15:08;99890.09;;;12.51;39.10
26112;BME280;13829;48.990;8.346;2023-03-11T08:17:35;99887.00;;;12.11;41.71
26112;BME280;13829;48.990;8.346;2023-03-11T08:20:05;99896.94;;;11.78;41.66
26112;BME280;13829;48.990;8.346;2023-03-11T08:22:33;99897.66;;;11.98;41.44
26112;BME280;13829;48.990;8.346;2023-03-11T08:25:00;99897.31;;;11.23;42.44
26112;BME280;13829;48.990;8.346;2023-03-11T08:27:28;99887.00;;;10.82;43.35
26112;BME280;13829;48.990;8.346;2023-03-11T08:29:55;99893.25;;;10.56;44.39
26112;BME280;13829;48.990;8.346;2023-03-11T08:32:22;99886.25;;;10.46;44.83
26112;BME280;13829;48.990;8.346;2023-03-11T08:34:49;99892.47;;;9.92;45.61
26112;BME280;13829;48.990;8.346;2023-03-11T08:37:17;99889.81;;;9.62;46.50
26112;BME280;13829;48.990;8.346;2023-03-11T08:39:44;99900.31;;;9.53;48.14
26112;BME280;13829;48.990;8.346;2023-03-11T08:42:11;99902.06;;;9.48;45.58
26112;BME280;13829;48.990;8.346;2023-03-11T08:44:38;99903.72;;;9.03;47.95
26112;BME280;13829;48.990;8.346;2023-03-11T08:47:05;99905.47;;;9.04;46.97
26112;BME280;13829;48.990;8.346;2023-03-11T08:49:32;99908.88;;;8.81;48.82
26112;BME280;13829;48.990;8.346;2023-03-11T08:52:01;99905.25;;;8.57;49.92
26112;BME280;13829;48.990;8.346;2023-03-11T08:54:30;99903.50;;;8.53;51.79
26112;BME280;13829;48.990;8.346;2023-03-11T08:56:57;99905.25;;;8.57;48.70
26112;BME280;13829;48.990;8.346;2023-03-11T08:59:28;99918.38;;;8.56;49.93
26112;BME280;13829;48.990;8.346;2023-03-11T09:01:55;99920.16;;;8.61;49.16
26112;BME280;13829;48.990;8.346;2023-03-11T09:04:22;99921.97;;;8.73;50.13
26112;BME280;13829;48.990;8.346;2023-03-11T09:06:49;99925.47;;;8.75;48.70
26112;BME280;13829;48.990;8.346;2023-03-11T09:09:16;99921.91;;;8.67;52.69
26112;BME280;13829;48.990;8.346;2023-03-11T09:11:46;99921.91;;;8.64;50.30
26112;BME280;13829;48.990;8.346;2023-03-11T09:14:13;99926.16;;;8.45;52.69
26112;BME280;13829;48.990;8.346;2023-03-11T09:16:40;99934.66;;;8.10;52.62
26112;BME280;13829;48.990;8.346;2023-03-11T09:19:08;99931.75;;;7.73;50.08
26112;BME280;13829;48.990;8.346;2023-03-11T09:21:36;99933.38;;;7.61;50.06
26112;BME280;13829;48.990;8.346;2023-03-11T09:24:04;99931.06;;;7.08;52.66
26112;BME280;13829;48.990;8.346;2023-03-11T09:26:32;99937.34;;;7.25;51.58
26112;BME280;13829;48.990;8.346;2023-03-11T09:29:00;99927.88;;;7.37;51.06
26112;BME280;13829;48.990;8.346;2023-03-11T09:31:27;99927.25;;;7.59;49.76
26112;BME280;13829;48.990;8.346;2023-03-11T09:33:54;99929.06;;;7.66;50.88
26112;BME280;13829;48.990;8.346;2023-03-11T09:36:21;99933.28;;;7.54;50.39
26112;BME280;13829;48.990;8.346;2023-03-11T09:38:48;99931.56;;;7.57;50.37
26112;BME280;13829;48.990;8.346;2023-03-11T09:41:37;99931.22;;;7.22;48.61
26112;BME280;13829;48.990;8.346;2023-03-11T09:44:17;99926.75;;;7.13;49.85
26112;BME280;13829;48.990;8.346;2023-03-11T09:47:15;99925.03;;;7.15;51.71
26112;BME280;13829;48.990;8.346;2023-03-11T09:50:14;99929.13;;;6.93;50.17
26112;BME280;13829;48.990;8.346;2023-03-11T09:52:55;99929.97;;;6.90;51.58
26112;BME280;13829;48.990;8.346;2023-03-11T09:55:33;99930.72;;;6.81;50.39
26112;BME280;13829;48.990;8.346;2023-03-11T09:58:11;99920.56;;;7.05;52.40
26112;BME280;13829;48.990;8.346;2023-03-11T10:00:41;99924.50;;;7.47;48.90
26112;BME280;13829;48.990;8.346;2023-03-11T10:03:24;99922.81;;;7.54;49.53
26112;BME280;13829;48.990;8.346;2023-03-11T10:06:15;99925.41;;;7.49;47.48
26112;BME280;13829;48.990;8.346;2023-03-11T10:08:48;99925.72;;;7.83;47.06
26112;BME280;13829;48.990;8.346;2023-03-11T10:11:36;99927.13;;;7.47;44.10
26112;BME280;13829;48.990;8.346;2023-03-11T10:14:26;99928.84;;;6.69;44.64
26112;BME280;13829;48.990;8.346;2023-03-11T10:17:09;99924.06;;;7.05;43.69
26112;BME280;13829;48.990;8.346;2023-03-11T10:19:47;99925.47;;;7.58;46.56
26112;BME280;13829;48.990;8.346;2023-03-11T10:22:31;99932.78;;;7.93;47.16
26112;BME280;13829;48.990;8.346;2023-03-11T10:25:10;99919.72;;;8.01;49.60
26112;BME280;13829;48.990;8.346;2023-03-11T10:27:45;99917.19;;;8.12;50.07
26112;BME280;13829;48.990;8.346;2023-03-11T10:30:23;99912.88;;;8.17;45.35
26112;BME280;13829;48.990;8.346;2023-03-11T10:32:58;99904.19;;;8.26;44.54
26112;BME280;13829;48.990;8.346;2023-03-11T10:35:35;99904.97;;;8.11;44.19
26112;BME280;13829;48.990;8.346;2023-03-11T10:38:13;99912.88;;;8.20;46.74
26112;BME280;13829;48.990;8.346;2023-03-11T10:40:44;99902.44;;;8.26;46.99
26112;BME280;13829;48.990;8.346;2023-03-11T10:43:15;99904.34;;;8.46;46.44
26112;BME280;13829;48.990;8.346;2023-03-11T10:45:44;99909.38;;;8.15;47.02
26112;BME280;13829;48.990;8.346;2023-03-11T10:48:17;99909.41;;;8.21;46.11
26112;BME280;13829;48.990;8.346;2023-03-11T10:50:51;99914.44;;;7.95;45.33
26112;BME280;13829;48.990;8.346;2023-03-11T10:53:20;99928.22;;;7.69;46.61
26112;BME280;13829;48.990;8.346;2023-03-11T10:55:49;99923.66;;;7.51;48.96
26112;BME280;13829;48.990;8.346;2023-03-11T10:58:20;99926.25;;;7.46;47.43
26112;BME280;13829;48.990;8.346;2023-03-11T11:01:01;99932.50;;;7.62;47.60
26112;BME280;13829;48.990;8.346;2023-03-11T11:03:30;99934.19;;;7.57;47.52
26112;BME280;13829;48.990;8.346;2023-03-11T11:06:02;99931.56;;;7.57;47.49
26112;BME280;13829;48.990;8.346;2023-03-11T11:08:31;99936.19;;;7.83;48.72
26112;BME280;13829;48.990;8.346;2023-03-11T11:11:01;99932.78;;;7.93;48.98
26112;BME280;13829;48.990;8.346;2023-03-11T11:13:30;99923.25;;;8.03;46.40
26112;BME280;13829;48.990;8.346;2023-03-11T11:16:02;99923.03;;;7.78;45.80
26112;BME280;13829;48.990;8.346;2023-03-11T11:18:35;99921.41;;;7.91;47.37
26112;BME280;13829;48.990;8.346;2023-03-11T11:21:05;99927.53;;;7.93;48.09
26112;BME280;13829;48.990;8.346;2023-03-11T11:23:38;99920.47;;;7.84;44.77
26112;BME280;13829;48.990;8.346;2023-03-11T11:26:16;99923.16;;;7.91;45.38
26112;BME280;13829;48.990;8.346;2023-03-11T11:28:43;99924.22;;;8.16;45.13
26112;BME280;13829;48.990;8.346;2023-03-11T11:31:22;99917.34;;;8.37;44.32
26112;BME280;13829;48.990;8.346;2023-03-11T11:33:53;99915.66;;;8.45;43.22
26112;BME280;13829;48.990;8.346;2023-03-11T11:36:25;99915.66;;;8.45;43.73
26112;BME280;13829;48.990;8.346;2023-03-11T11:38:53;99910.53;;;8.59;43.89
26112;BME280;13829;48.990;8.346;2023-03-11T11:41:23;99903.59;;;8.76;41.32
26112;BME280;13829;48.990;8.346;2023-03-11T11:43:54;99904.47;;;8.71;43.64
26112;BME280;13829;48.990;8.346;2023-03-11T11:46:27;99905.34;;;8.79;44.90
26112;BME280;13829;48.990;8.346;2023-03-11T11:49:11;99892.34;;;9.02;43.55
26112;BME280;13829;48.990;8.346;2023-03-11T11:51:49;99893.13;;;8.84;43.64
26112;BME280;13829;48.990;8.346;2023-03-11T11:54:23;99898.41;;;8.90;45.19
26112;BME280;13829;48.990;8.346;2023-03-11T11:56:54;99888.81;;;8.89;43.87
26112;BME280;13829;48.990;8.346;2023-03-11T11:59:23;99897.44;;;8.59;44.68
26112;BME280;13829;48.990;8.346;2023-03-11T12:02:06;99900.03;;;8.54;44.69
26112;BME280;13829;48.990;8.346;2023-03-11T12:04:51;99901.66;;;8.41;43.63
26112;BME280;13829;48.990;8.346;2023-03-11T12:08:01;99900.84;;;8.47;44.52
26112;BME280;13829;48.990;8.346;2023-03-11T12:10:41;99896.47;;;8.46;44.18
26112;BME280;13829;48.990;8.346;2023-03-11T12:16:39;99900.72;;;8.31;45.50
26112;BME280;13829;48.990;8.346;2023-03-11T12:19:18;99902.50;;;8.36;44.16
26112;BME280;13829;48.990;8.346;2023-03-11T12:22:19;99891.97;;;8.28;45.16
26112;BME280;13829;48.990;8.346;2023-03-11T12:25:07;99898.84;;;8.09;44.15
26112;BME280;13829;48.990;8.346;2023-03-11T12:27:44;99885.84;;;8.21;43.73
26112;BME280;13829;48.990;8.346;2023-03-11T12:30:19;99889.47;;;8.45;41.64
26112;BME280;13829;48.990;8.346;2023-03-11T12:32:51;99885.00;;;8.35;43.60
26112;BME280;13829;48.990;8.346;2023-03-11T12:35:24;99897.41;;;8.57;41.62
26112;BME280;13829;48.990;8.346;2023-03-11T12:38:13;99895.56;;;8.45;38.42
26112;BME280;13829;48.990;8.346;2023-03-11T12:41:05;99896.34;;;8.30;39.40
26112;BME280;13829;48.990;8.346;2023-03-11T12:44:08;99889.59;;;8.67;40.56
26112;BME280;13829;48.990;8.346;2023-03-11T12:47:17;99887.78;;;8.56;42.48
26112;BME280;13829;48.990;8.346;2023-03-11T12:49:47;99878.91;;;8.32;41.11
26112;BME280;13829;48.990;8.346;2023-03-11T12:52:27;99879.91;;;8.56;38.98
26112;BME280;13829;48.990;8.346;2023-03-11T12:55:37;99881.41;;;8.14;39.19
26112;BME280;13829;48.990;8.346;2023-03-11T13:01:49;99878.66;;;7.92;38.32
26112;BME280;13829;48.990;8.346;2023-03-11T13:04:29;99874.03;;;7.62;38.52
26112;BME280;13829;48.990;8.346;2023-03-11T13:07:50;99875.75;;;7.58;41.88
26112;BME280;13829;48.990;8.346;2023-03-11T13:10:38;99875.94;;;7.78;41.47
26112;BME280;13829;48.990;8.346;2023-03-11T13:13:35;99868.22;;;8.02;39.56
26112;BME280;13829;48.990;8.346;2023-03-11T13:16:35;99866.50;;;8.04;42.88
26112;BME280;13829;48.990;8.346;2023-03-11T13:19:48;99853.44;;;8.10;43.29
26112;BME280;13829;48.990;8.346;2023-03-11T13:26:01;99863.16;;;8.28;44.02
26112;BME280;13829;48.990;8.346;2023-03-11T13:28:56;99865.81;;;8.32;42.12
26112;BME280;13829;48.990;8.346;2023-03-11T13:32:02;99872.81;;;8.40;43.62
26112;BME280;13829;48.990;8.346;2023-03-11T13:34:42;99879.84;;;8.44;42.26
26112;BME280;13829;48.990;8.346;2023-03-11T13:37:26;99892.06;;;8.40;40.02
26112;BME280;13829;48.990;8.346;2023-03-11T13:40:12;99885.97;;;8.46;43.92
26112;BME280;13829;48.990;8.346;2023-03-11T13:42:49;99886.88;;;8.51;40.81